Time;durP1;ratioP1;P1;durP2;ratioP2;P2;SDS_P1;SDS_P2;PMS_P1;PMS_P2;Temp;Humidity;BMP_temperature;BMP_pressure;BME280_temperature;BME280_humidity;BME280_pressure;Samples;Min_cycle;Max_cycle;Signal;HPM_P1;HPM_P2
2021/07/25 14:00:01;;;;;;;5.75;4.55;;;;;;;29.62;32.69;100710.56;5042769;27;20694;-68
2021/07/25 14:02:27;;;;;;;7.38;5.43;;;;;;;29.57;32.48;100707.31;4998318;28;20053;-69
2021/07/25 14:04:54;;;;;;;6.47;4.38;;;;;;;29.58;32.38;100715.34;5004321;28;20037;-74
2021/07/25 14:07:19;;;;;;;11.35;7.00;;;;;;;29.53;32.00;100706.69;5003402;28;20080;-72
2021/07/25 14:09:45;;;;;;;22.20;13.80;;;;;;;29.52;34.17;100707.66;4999391;28;20916;-76
2021/07/25 14:12:13;;;;;;;17.75;12.88;;;;;;;29.66;33.15;100710.22;5004767;28;20018;-78
2021/07/25 14:14:41;;;;;;;18.17;11.80;;;;;;;29.75;33.24;100699.69;5005495;28;20030;-79
2021/07/25 14:17:07;;;;;;;11.65;8.52;;;;;;;29.70;32.37;100710.88;5003635;28;20405;-78
2021/07/25 14:19:32;;;;;;;13.00;7.53;;;;;;;29.75;32.40;100711.38;5005251;28;20021;-80
2021/07/25 14:21:59;;;;;;;17.40;9.82;;;;;;;29.63;33.63;100702.31;5003745;28;20149;-79
2021/07/25 14:24:25;;;;;;;10.15;8.75;;;;;;;29.54;33.88;100703.00;5001792;28;20418;-79
2021/07/25 14:26:51;;;;;;;12.50;8.43;;;;;;;29.56;33.94;100701.06;5002216;28;20034;-79
2021/07/25 14:29:16;;;;;;;9.73;8.48;;;;;;;29.75;33.60;100703.25;4998383;28;20018;-78
2021/07/25 14:31:42;;;;;;;18.20;8.05;;;;;;;29.71;32.73;100698.19;5003292;28;20149;-75
2021/07/25 14:34:07;;;;;;;10.95;7.22;;;;;;;29.90;32.93;100706.66;4999495;28;20034;-72
2021/07/25 14:36:33;;;;;;;9.13;7.15;;;;;;;29.61;33.16;100693.44;4998494;28;20085;-71
2021/07/25 14:38:58;;;;;;;11.77;8.30;;;;;;;29.66;33.69;100699.41;4993840;28;20454;-73
2021/07/25 14:41:24;;;;;;;10.98;6.57;;;;;;;29.56;33.39;100692.09;5004419;28;20034;-72
2021/07/25 14:43:53;;;;;;;7.60;5.78;;;;;;;29.42;33.05;100695.81;5001562;28;20466;-73
2021/07/25 14:46:19;;;;;;;6.13;4.65;;;;;;;29.54;33.10;100688.63;5004426;28;20069;-73
2021/07/25 14:48:47;;;;;;;20.63;7.15;;;;;;;29.68;32.96;100696.59;5002581;28;20030;-74
2021/07/25 14:51:13;;;;;;;15.25;7.53;;;;;;;29.58;33.15;100690.13;4998009;28;20438;-72
2021/07/25 14:53:42;;;;;;;7.47;5.45;;;;;;;29.57;33.16;100701.91;5001309;28;20046;-69
2021/07/25 14:56:09;;;;;;;7.75;5.25;;;;;;;29.48;33.46;100708.91;5003717;28;20030;-80
2021/07/25 14:58:37;;;;;;;10.52;6.60;;;;;;;29.47;33.06;100696.34;5004586;28;20112;-69
2021/07/25 15:01:07;;;;;;;11.40;6.55;;;;;;;29.48;33.25;100698.09;4999367;28;20038;-75
2021/07/25 15:03:33;;;;;;;7.40;5.00;;;;;;;29.45;32.88;100699.19;5003057;28;20041;-73
2021/07/25 15:05:58;;;;;;;5.18;3.63;;;;;;;29.48;32.09;100691.78;5004106;28;20038;-73
2021/07/25 15:08:24;;;;;;;8.27;4.35;;;;;;;29.42;32.46;100687.72;5003654;28;20022;-73
2021/07/25 15:10:49;;;;;;;7.20;3.35;;;;;;;29.54;32.08;100683.22;4987414;28;20065;-71
2021/07/25 15:13:15;;;;;;;11.50;5.72;;;;;;;29.72;31.94;100686.41;4986556;28;20045;-73
2021/07/25 15:15:41;;;;;;;10.00;4.18;;;;;;;29.81;31.81;100686.56;4984774;28;20034;-72
2021/07/25 15:18:07;;;;;;;9.20;4.25;;;;;;;29.80;32.16;100684.81;4990622;28;20027;-73
2021/07/25 15:20:32;;;;;;;6.03;3.45;;;;;;;29.50;32.37;100685.31;4988253;28;20026;-74
2021/07/25 15:22:59;;;;;;;14.45;3.58;;;;;;;29.26;31.85;100679.88;4986343;28;20030;-72
2021/07/25 15:25:25;;;;;;;5.43;2.72;;;;;;;29.28;31.97;100679.78;4989788;28;20425;-73
2021/07/25 15:27:50;;;;;;;6.57;3.97;;;;;;;29.35;32.83;100678.34;4989258;28;20023;-73
2021/07/25 15:30:16;;;;;;;7.55;4.07;;;;;;;29.35;33.64;100681.03;4989612;28;20053;-72
2021/07/25 15:32:41;;;;;;;5.68;3.63;;;;;;;29.32;33.14;100679.44;4986006;28;20030;-73
2021/07/25 15:35:07;;;;;;;9.52;4.40;;;;;;;29.38;33.23;100688.91;4988527;28;20030;-73
2021/07/25 15:37:35;;;;;;;8.40;3.75;;;;;;;29.34;33.14;100680.19;4987614;28;20037;-72
2021/07/25 15:40:01;;;;;;;9.98;4.20;;;;;;;29.28;33.72;100675.22;4992257;28;20081;-72
2021/07/25 15:42:26;;;;;;;7.43;4.18;;;;;;;29.36;34.14;100675.53;4985359;28;20030;-73
2021/07/25 15:44:52;;;;;;;25.70;4.78;;;;;;;29.38;34.08;100675.38;4988147;28;20038;-73
2021/07/25 15:47:17;;;;;;;9.40;3.28;;;;;;;29.23;34.05;100674.69;4988598;28;20034;-72
2021/07/25 15:49:43;;;;;;;5.05;3.17;;;;;;;29.07;34.12;100676.78;4990649;28;20402;-72
2021/07/25 15:52:08;;;;;;;6.78;3.88;;;;;;;29.07;33.80;100674.06;4988652;28;20038;-72
2021/07/25 15:54:37;;;;;;;9.65;4.03;;;;;;;29.04;34.09;100684.13;4989283;28;20030;-71
2021/07/25 15:57:02;;;;;;;4.80;3.13;;;;;;;29.11;34.60;100681.03;4990098;28;20137;-72
2021/07/25 15:59:28;;;;;;;6.57;4.07;;;;;;;29.10;34.75;100690.94;4989010;28;20105;-72
2021/07/25 16:01:53;;;;;;;5.38;3.20;;;;;;;29.06;34.45;100689.44;4984827;28;20120;-73
2021/07/25 16:04:19;;;;;;;8.10;4.18;;;;;;;29.05;34.31;100679.59;4980942;28;20437;-72
2021/07/25 16:06:44;;;;;;;11.88;3.85;;;;;;;28.94;35.14;100685.78;4989559;28;20026;-71
2021/07/25 16:09:10;;;;;;;5.18;3.55;;;;;;;28.92;34.68;100684.19;4984442;28;20049;-73
2021/07/25 16:11:36;;;;;;;6.40;3.95;;;;;;;28.95;34.46;100692.06;4985753;28;20304;-73
2021/07/25 16:14:03;;;;;;;4.88;3.38;;;;;;;28.96;34.06;100675.75;4982794;28;20675;-73
2021/07/25 16:16:29;;;;;;;7.53;3.88;;;;;;;28.96;34.97;100683.84;4985123;28;20038;-73
2021/07/25 16:18:55;;;;;;;4.88;3.63;;;;;;;28.82;35.47;100686.66;4983835;28;20030;-72
2021/07/25 16:21:23;;;;;;;7.53;3.65;;;;;;;28.84;35.18;100684.72;4984128;28;20097;-73
2021/07/25 16:23:49;;;;;;;8.50;5.25;;;;;;;28.82;34.91;100687.53;4986716;28;20034;-73
2021/07/25 16:26:16;;;;;;;13.35;5.20;;;;;;;28.79;35.17;100686.88;4987978;28;20110;-73
2021/07/25 16:28:42;;;;;;;8.45;4.07;;;;;;;28.72;34.81;100689.16;4984179;28;20026;-73
2021/07/25 16:31:09;;;;;;;6.45;3.40;;;;;;;28.75;34.81;100686.25;4990313;28;20062;-73
2021/07/25 16:33:35;;;;;;;7.55;3.33;;;;;;;28.68;35.27;100681.38;4984794;28;20022;-73
2021/07/25 16:36:01;;;;;;;5.30;3.13;;;;;;;28.58;36.03;100686.59;4988683;28;20026;-74
2021/07/25 16:38:27;;;;;;;9.75;4.63;;;;;;;28.51;35.75;100677.19;4989173;28;20029;-72
2021/07/25 16:40:52;;;;;;;6.32;3.88;;;;;;;28.53;35.73;100677.97;4986142;28;20065;-72
2021/07/25 16:43:18;;;;;;;7.72;4.00;;;;;;;28.49;35.84;100682.69;4987660;28;20034;-74
2021/07/25 16:45:43;;;;;;;12.60;5.05;;;;;;;28.38;35.42;100685.28;4987801;28;20022;-73
2021/07/25 16:48:09;;;;;;;6.50;4.15;;;;;;;28.36;35.45;100684.53;4986629;28;20371;-73
2021/07/25 16:50:34;;;;;;;8.57;4.90;;;;;;;28.30;35.18;100685.78;4980796;28;20077;-73
2021/07/25 16:53:00;;;;;;;8.35;3.53;;;;;;;28.30;35.70;100688.50;4983959;28;20034;-73
2021/07/25 16:55:26;;;;;;;10.68;5.28;;;;;;;28.26;35.83;100687.00;4987493;28;20030;-73
2021/07/25 16:57:51;;;;;;;8.50;5.75;;;;;;;28.21;35.74;100691.84;4986777;28;20026;-74
2021/07/25 17:00:17;;;;;;;9.98;5.18;;;;;;;28.11;35.52;100682.66;4983325;28;20034;-73
2021/07/25 17:02:42;;;;;;;8.18;5.10;;;;;;;28.11;35.70;100682.66;4976758;28;20023;-73
2021/07/25 17:05:08;;;;;;;7.50;5.13;;;;;;;28.07;35.74;100687.38;4985260;28;20549;-73
2021/07/25 17:07:34;;;;;;;8.55;6.03;;;;;;;28.09;35.71;100692.69;4983732;28;20367;-72
2021/07/25 17:09:59;;;;;;;7.68;5.15;;;;;;;28.05;35.79;100688.47;4985889;28;20037;-73
2021/07/25 17:12:24;;;;;;;6.97;5.15;;;;;;;27.97;35.25;100691.69;4986720;28;20526;-73
2021/07/25 17:14:50;;;;;;;9.00;5.22;;;;;;;27.96;35.33;100693.53;4981954;28;20026;-73
2021/07/25 17:17:15;;;;;;;30.88;6.63;;;;;;;27.92;35.11;100696.56;4985209;28;20080;-73
2021/07/25 17:19:43;;;;;;;12.07;4.63;;;;;;;27.88;35.08;100687.78;4983240;28;20018;-72
2021/07/25 17:22:09;;;;;;;6.80;5.28;;;;;;;27.85;35.73;100698.78;4986857;28;20040;-72
2021/07/25 17:24:34;;;;;;;9.82;7.05;;;;;;;27.81;35.83;100699.94;4989614;28;20014;-71
2021/07/25 17:27:00;;;;;;;9.52;7.82;;;;;;;27.77;35.72;100709.22;4986524;28;20523;-73
2021/07/25 17:29:25;;;;;;;9.32;5.72;;;;;;;27.73;35.56;100699.59;4985830;28;20357;-74
2021/07/25 17:31:51;;;;;;;10.77;7.90;;;;;;;27.70;35.20;100705.22;4982513;28;20041;-72
2021/07/25 17:34:17;;;;;;;10.10;5.85;;;;;;;27.70;35.21;100702.50;4983037;28;20038;-72
2021/07/25 17:36:42;;;;;;;7.22;4.80;;;;;;;27.68;35.16;100707.16;4986465;28;20339;-73
2021/07/25 17:39:08;;;;;;;7.40;5.00;;;;;;;27.64;35.33;100713.69;4986578;28;20010;-71
2021/07/25 17:41:35;;;;;;;8.65;4.95;;;;;;;27.61;35.35;100720.16;4981506;28;20028;-71
2021/07/25 17:44:00;;;;;;;10.07;4.88;;;;;;;27.59;35.71;100719.41;4984750;28;20026;-72
2021/07/25 17:46:28;;;;;;;7.63;4.65;;;;;;;27.55;35.85;100710.63;4984608;28;20488;-68
2021/07/25 17:48:56;;;;;;;10.85;5.60;;;;;;;27.51;35.87;100711.81;4982855;28;20100;-68
2021/07/25 17:51:22;;;;;;;11.18;4.97;;;;;;;27.51;35.92;100719.91;4986510;28;20018;-71
2021/07/25 17:53:48;;;;;;;18.77;5.20;;;;;;;27.51;36.22;100719.03;4984040;28;20049;-69
2021/07/25 17:56:14;;;;;;;15.38;5.82;;;;;;;27.44;36.53;100723.09;4986615;28;20065;-72
2021/07/25 17:58:39;;;;;;;10.30;5.97;;;;;;;27.40;36.28;100722.44;4986505;28;20122;-72
2021/07/25 18:01:06;;;;;;;21.45;16.55;;;;;;;27.38;37.08;100724.38;4987694;28;20146;-71
2021/07/25 18:03:34;;;;;;;10.32;5.15;;;;;;;27.24;37.00;100719.88;4976986;28;20496;-71
2021/07/25 18:05:59;;;;;;;10.98;7.60;;;;;;;27.12;37.79;100720.66;4988162;28;20114;-71
2021/07/25 18:08:25;;;;;;;18.80;6.95;;;;;;;26.99;37.95;100723.25;4984638;28;20014;-71
2021/07/25 18:10:50;;;;;;;10.65;6.32;;;;;;;26.98;37.63;100723.38;4985633;28;20041;-71
2021/07/25 18:13:16;;;;;;;9.05;7.18;;;;;;;26.98;37.72;100732.31;4986431;28;20897;-71
2021/07/25 18:15:47;;;;;;;10.43;8.18;;;;;;;27.00;37.72;100729.53;4986396;28;20022;-71
2021/07/25 18:18:12;;;;;;;11.82;7.22;;;;;;;27.00;37.98;100734.91;4988259;28;20493;-71
2021/07/25 18:20:38;;;;;;;14.48;7.47;;;;;;;26.93;38.18;100724.50;4984919;28;20035;-71
2021/07/25 18:23:04;;;;;;;9.55;6.30;;;;;;;26.81;38.65;100733.38;4986653;28;20135;-72
2021/07/25 18:25:30;;;;;;;10.32;6.65;;;;;;;26.77;38.47;100728.28;4996024;28;20057;-69
2021/07/25 18:27:55;;;;;;;17.45;8.48;;;;;;;26.79;38.88;100737.13;4987558;28;20066;-68
2021/07/25 18:30:24;;;;;;;11.38;7.25;;;;;;;26.73;38.92;100741.91;4984907;28;20027;-68
2021/07/25 18:32:49;;;;;;;13.07;8.90;;;;;;;26.62;39.45;100730.97;4984800;28;20072;-67
2021/07/25 18:35:15;;;;;;;13.52;6.95;;;;;;;26.63;39.81;100739.91;4988310;28;20421;-68
2021/07/25 18:37:40;;;;;;;13.18;7.70;;;;;;;26.51;40.21;100745.03;4984503;28;20121;-67
2021/07/25 18:40:06;;;;;;;20.13;8.23;;;;;;;26.44;40.65;100749.06;4984557;28;20037;-68
2021/07/25 18:42:33;;;;;;;19.67;7.25;;;;;;;26.35;41.05;100741.56;4983465;28;20027;-67
2021/07/25 18:44:58;;;;;;;11.02;6.90;;;;;;;26.31;41.13;100748.94;4980745;28;20441;-69
2021/07/25 18:47:24;;;;;;;13.95;7.35;;;;;;;26.30;41.44;100754.44;4989558;28;20030;-68
2021/07/25 18:49:49;;;;;;;16.33;8.02;;;;;;;26.18;41.72;100747.09;4990665;28;20389;-68
2021/07/25 18:52:15;;;;;;;17.75;8.23;;;;;;;26.13;41.93;100747.38;4989543;28;20062;-69
2021/07/25 18:54:40;;;;;;;12.85;7.43;;;;;;;26.14;41.61;100753.63;4992921;28;20037;-69
2021/07/25 18:57:10;;;;;;;18.92;8.77;;;;;;;26.09;42.20;100756.56;4987549;28;20034;-70
2021/07/25 18:59:35;;;;;;;18.65;8.80;;;;;;;25.99;42.34;100753.56;4988525;28;20045;-69
2021/07/25 19:02:01;;;;;;;13.85;9.50;;;;;;;25.96;42.70;100758.25;4986882;28;20394;-71
2021/07/25 19:04:28;;;;;;;14.23;8.55;;;;;;;25.87;43.08;100754.28;4984816;28;20030;-72
2021/07/25 19:06:53;;;;;;;12.43;9.10;;;;;;;25.81;43.32;100755.47;4988434;28;20069;-72
2021/07/25 19:09:19;;;;;;;10.65;7.93;;;;;;;25.78;43.94;100762.84;4986709;28;20035;-71
2021/07/25 19:11:47;;;;;;;13.98;8.43;;;;;;;25.72;43.41;100768.59;4990842;28;20377;-68
2021/07/25 19:14:13;;;;;;;11.38;8.90;;;;;;;25.66;43.32;100764.41;4988728;28;20060;-68
2021/07/25 19:16:39;;;;;;;11.57;10.00;;;;;;;25.62;44.48;100770.94;4989138;28;20478;-68
2021/07/25 19:19:05;;;;;;;16.98;9.48;;;;;;;25.52;44.84;100773.28;4989337;28;20022;-68
2021/07/25 19:21:30;;;;;;;11.48;8.32;;;;;;;25.43;44.98;100777.34;4989720;28;20072;-70
2021/07/25 19:23:56;;;;;;;18.15;9.70;;;;;;;25.41;45.11;100771.19;4990796;28;20030;-69
2021/07/25 19:26:25;;;;;;;11.77;9.23;;;;;;;25.49;45.25;100776.97;4989403;28;20061;-69
2021/07/25 19:28:50;;;;;;;14.40;9.20;;;;;;;25.42;44.80;100769.38;4990586;28;20014;-68
2021/07/25 19:31:17;;;;;;;17.92;9.00;;;;;;;25.38;44.61;100771.38;4990776;28;20030;-71
2021/07/25 19:33:43;;;;;;;25.10;10.77;;;;;;;25.36;45.54;100781.34;4983970;28;20026;-71
2021/07/25 19:36:09;;;;;;;19.95;9.57;;;;;;;25.31;46.51;100782.53;4989015;28;20680;-71
2021/07/25 19:38:36;;;;;;;15.35;9.55;;;;;;;25.26;47.32;100774.72;4990105;28;20041;-72
2021/07/25 19:41:09;;;;;;;16.38;8.70;;;;;;;25.24;47.97;100779.34;4985821;28;20034;-72
2021/07/25 19:43:34;;;;;;;;;;;;;;;25.22;48.30;100790.16;4990639;28;20763;-72
2021/07/25 19:46:00;;;;;;;15.63;9.13;;;;;;;25.07;46.27;100788.25;4988015;28;19921;-72
2021/07/25 19:48:26;;;;;;;12.60;8.70;;;;;;;24.99;46.05;100791.38;4987549;28;20101;-71
2021/07/25 19:50:53;;;;;;;12.38;9.18;;;;;;;24.97;48.10;100798.66;4986738;28;20062;-72
2021/07/25 19:53:19;;;;;;;20.30;11.30;;;;;;;25.04;48.93;100792.00;4988880;28;20077;-72
2021/07/25 19:55:44;;;;;;;21.80;8.75;;;;;;;25.06;47.98;100797.28;4990418;28;20044;-73
2021/07/25 19:58:11;;;;;;;19.60;9.82;;;;;;;25.02;48.44;100801.94;4988845;28;20118;-71
2021/07/25 20:00:37;;;;;;;20.48;8.73;;;;;;;24.92;48.41;100799.84;4987984;28;20021;-71
2021/07/25 20:03:04;;;;;;;13.18;9.00;;;;;;;24.91;49.98;100807.06;4985902;28;20034;-72
2021/07/25 20:05:29;;;;;;;21.90;10.93;;;;;;;24.83;50.43;100801.22;4987252;28;20414;-73
2021/07/25 20:07:55;;;;;;;18.98;9.45;;;;;;;24.75;51.00;100806.13;4989582;28;20037;-74
2021/07/25 20:10:20;;;;;;;24.48;10.63;;;;;;;24.64;51.52;100807.53;4987490;28;20076;-73
2021/07/25 20:12:46;;;;;;;22.70;12.07;;;;;;;24.56;52.63;100809.78;4990085;28;20029;-72
2021/07/25 20:15:14;;;;;;;21.30;10.60;;;;;;;24.51;52.52;100816.31;4987937;28;20026;-73
2021/07/25 20:17:40;;;;;;;27.65;12.23;;;;;;;24.49;54.77;100813.72;4989091;28;20041;-72
2021/07/25 20:20:06;;;;;;;19.70;11.45;;;;;;;24.49;54.07;100816.41;4990252;28;20034;-72
2021/07/25 20:22:35;;;;;;;25.88;12.20;;;;;;;24.46;53.87;100819.19;4986608;28;20503;-72
2021/07/25 20:25:00;;;;;;;17.23;12.50;;;;;;;24.17;54.85;100810.81;4987216;28;20062;-68
2021/07/25 20:27:26;;;;;;;14.70;9.85;;;;;;;23.86;56.54;100821.31;4989786;28;20500;-72
2021/07/25 20:29:52;;;;;;;22.75;10.90;;;;;;;23.72;56.73;100817.47;4987797;28;20022;-73
2021/07/25 20:32:18;;;;;;;14.70;11.73;;;;;;;23.70;56.92;100819.38;4987154;28;20045;-71
2021/07/25 20:34:44;;;;;;;23.77;14.40;;;;;;;23.78;57.09;100819.88;4985796;28;20039;-72
2021/07/25 20:37:10;;;;;;;22.60;14.50;;;;;;;23.86;57.01;100818.63;4988102;28;20096;-72
2021/07/25 20:39:38;;;;;;;28.48;13.88;;;;;;;23.88;57.53;100817.66;4989020;28;20477;-70
2021/07/25 20:42:04;;;;;;;29.45;14.70;;;;;;;23.81;57.45;100821.53;4987715;28;20038;-68
2021/07/25 20:44:30;;;;;;;31.60;15.50;;;;;;;23.77;57.54;100828.88;4983862;28;20084;-69
2021/07/25 20:46:55;;;;;;;21.75;13.30;;;;;;;23.69;58.24;100827.47;4984840;28;20026;-69
2021/07/25 20:49:21;;;;;;;19.80;14.95;;;;;;;23.74;57.99;100826.34;4987581;28;20821;-68
2021/07/25 20:51:47;;;;;;;19.63;14.85;;;;;;;23.55;59.33;100833.47;4985582;28;20117;-69
2021/07/25 20:54:13;;;;;;;23.25;15.60;;;;;;;23.22;59.93;100828.75;4988733;28;20500;-69
2021/07/25 20:56:39;;;;;;;28.23;13.57;;;;;;;23.17;59.90;100828.97;4987342;28;20034;-70
2021/07/25 20:59:04;;;;;;;28.45;12.05;;;;;;;23.23;59.59;100832.31;4985028;28;20046;-70
2021/07/25 21:01:30;;;;;;;31.55;15.52;;;;;;;23.38;58.91;100826.25;4981427;28;20058;-72
2021/07/25 21:03:56;;;;;;;40.95;15.45;;;;;;;23.47;58.96;100838.34;4985631;28;20032;-71
2021/07/25 21:06:21;;;;;;;32.30;12.73;;;;;;;23.44;58.44;100843.84;4987611;28;20049;-71
2021/07/25 21:08:50;;;;;;;17.15;12.63;;;;;;;23.50;57.89;100841.72;4985138;28;20023;-71
2021/07/25 21:11:15;;;;;;;23.27;11.95;;;;;;;23.53;57.43;100849.66;4987067;28;20084;-71
2021/07/25 21:13:41;;;;;;;19.02;11.48;;;;;;;23.49;56.99;100841.81;4981385;28;20034;-72
2021/07/25 21:16:10;;;;;;;27.70;13.13;;;;;;;23.44;56.63;100836.69;4982968;28;20034;-71
2021/07/25 21:18:38;;;;;;;26.10;12.70;;;;;;;23.43;58.16;100836.75;4978563;28;20090;-67
2021/07/25 21:21:09;;;;;;;24.65;14.95;;;;;;;23.42;61.19;100838.56;4986791;28;20417;-68
2021/07/25 21:23:35;;;;;;;38.85;14.55;;;;;;;23.39;60.76;100841.38;4982301;28;20030;-68
2021/07/25 21:26:00;;;;;;;32.90;14.13;;;;;;;23.36;60.93;100845.06;4972666;28;20154;-69
2021/07/25 21:28:26;;;;;;;23.92;11.13;;;;;;;23.26;57.15;100857.13;4981678;28;20022;-71
2021/07/25 21:30:51;;;;;;;25.35;14.60;;;;;;;23.17;59.42;100858.41;4983172;28;20034;-69
2021/07/25 21:33:16;;;;;;;22.67;14.20;;;;;;;23.17;59.38;100857.56;4981467;28;20041;-73
2021/07/25 21:35:42;;;;;;;22.88;12.70;;;;;;;23.22;58.81;100860.88;4985136;28;20027;-69
2021/07/25 21:38:08;;;;;;;23.67;13.50;;;;;;;23.16;58.97;100861.19;4981864;28;20060;-69
2021/07/25 21:40:33;;;;;;;21.05;13.63;;;;;;;23.16;59.07;100856.69;4985764;28;20129;-70
2021/07/25 21:42:59;;;;;;;21.20;12.35;;;;;;;23.17;58.99;100860.22;4980677;28;23657;-68
2021/07/25 21:45:24;;;;;;;16.90;10.63;;;;;;;23.01;57.77;100860.03;4986496;28;20050;-70
2021/07/25 21:47:50;;;;;;;31.60;12.73;;;;;;;22.94;58.83;100861.22;4984577;28;20037;-68
2021/07/25 21:50:16;;;;;;;20.50;11.27;;;;;;;22.93;60.97;100862.19;4987003;28;20736;-69
2021/07/25 21:52:42;;;;;;;28.67;11.75;;;;;;;22.83;60.28;100867.06;4984876;28;20049;-67
2021/07/25 21:55:08;;;;;;;17.15;11.13;;;;;;;22.69;59.77;100856.97;4987293;28;20413;-68
2021/07/25 21:57:34;;;;;;;15.45;9.90;;;;;;;22.70;59.38;100863.19;4987008;28;20088;-67
2021/07/25 22:00:00;;;;;;;15.15;10.40;;;;;;;22.60;59.51;100861.84;4981944;28;20335;-68
2021/07/25 22:04:51;;;;;;;24.98;12.98;;;;;;;22.60;60.76;100860.03;4990027;28;20026;-68
2021/07/25 22:07:19;;;;;;;13.38;10.05;;;;;;;22.54;61.57;100860.28;4988765;28;20038;-67
2021/07/25 22:09:45;;;;;;;24.50;12.25;;;;;;;22.55;61.85;100860.22;4986947;28;20045;-67
2021/07/25 22:12:14;;;;;;;15.45;12.07;;;;;;;22.51;61.88;100861.28;4985593;28;20069;-67
2021/07/25 22:14:41;;;;;;;19.85;10.98;;;;;;;22.50;61.79;100854.22;4989420;28;20478;-67
2021/07/25 22:17:07;;;;;;;12.77;9.30;;;;;;;22.42;61.97;100859.00;4987325;28;20031;-66
2021/07/25 22:19:33;;;;;;;15.93;10.65;;;;;;;22.39;62.34;100856.47;4985025;28;20041;-66
2021/07/25 22:21:59;;;;;;;24.35;10.48;;;;;;;22.40;61.78;100852.84;4993210;28;20038;-67
2021/07/25 22:24:24;;;;;;;15.57;10.02;;;;;;;22.44;61.76;100859.81;4989757;28;20573;-68
2021/07/25 22:26:50;;;;;;;17.35;10.85;;;;;;;22.32;61.78;100857.66;4988319;28;20037;-68
2021/07/25 22:29:15;;;;;;;13.32;10.25;;;;;;;22.29;61.56;100855.97;4988137;28;20113;-69
2021/07/25 22:31:41;;;;;;;12.70;9.25;;;;;;;22.11;61.91;100854.03;4990406;28;20033;-68
2021/07/25 22:34:07;;;;;;;17.10;10.35;;;;;;;22.03;63.20;100854.34;4986508;28;20060;-68
2021/07/25 22:36:32;;;;;;;13.85;10.85;;;;;;;21.95;63.08;100845.75;4990980;28;20048;-67
2021/07/25 22:38:58;;;;;;;22.27;9.60;;;;;;;21.89;63.01;100846.88;4986269;28;20509;-67
2021/07/25 22:41:23;;;;;;;17.15;10.10;;;;;;;21.86;63.08;100838.97;4983605;28;20115;-67
2021/07/25 22:43:52;;;;;;;20.98;9.43;;;;;;;21.87;61.60;100842.53;4990551;28;20037;-67
2021/07/25 22:46:17;;;;;;;19.13;9.38;;;;;;;21.83;61.79;100846.25;4989674;28;20540;-68
2021/07/25 22:48:43;;;;;;;14.20;9.77;;;;;;;21.73;61.61;100843.09;4991782;28;20030;-67
2021/07/25 22:51:14;;;;;;;14.32;8.68;;;;;;;21.69;61.54;100847.66;4988402;28;20034;-68
2021/07/25 22:53:41;;;;;;;18.52;9.80;;;;;;;21.62;62.30;100850.63;4989836;28;20034;-68
2021/07/25 22:56:06;;;;;;;17.45;8.80;;;;;;;21.55;62.81;100850.00;4984984;28;20022;-69
2021/07/25 22:58:32;;;;;;;11.98;8.00;;;;;;;21.59;61.05;100846.28;4988974;28;20045;-67
2021/07/25 23:00:58;;;;;;;15.68;9.23;;;;;;;21.63;61.67;100853.25;4990048;28;20741;-68
2021/07/25 23:03:24;;;;;;;13.27;9.00;;;;;;;21.58;62.41;100852.53;4990614;28;20026;-68
2021/07/25 23:05:50;;;;;;;12.23;7.47;;;;;;;21.54;61.86;100844.72;4987734;28;20370;-68
2021/07/25 23:08:15;;;;;;;13.00;9.25;;;;;;;21.56;61.84;100845.53;4988562;28;20026;-68
2021/07/25 23:10:41;;;;;;;14.45;9.15;;;;;;;21.48;63.06;100849.38;4989760;28;20021;-69
2021/07/25 23:13:08;;;;;;;9.73;7.88;;;;;;;21.47;62.31;100844.97;4989356;28;20022;-68
2021/07/25 23:15:33;;;;;;;15.52;7.97;;;;;;;21.33;62.57;100836.59;4989790;28;20038;-68
2021/07/25 23:17:59;;;;;;;14.32;9.77;;;;;;;21.45;62.54;100837.94;4987941;28;20036;-68
2021/07/25 23:20:25;;;;;;;17.70;9.32;;;;;;;21.54;62.11;100837.59;4991384;28;20030;-68
2021/07/25 23:22:50;;;;;;;17.45;9.65;;;;;;;21.48;62.59;100833.34;4991325;28;20030;-68
2021/07/25 23:25:16;;;;;;;12.77;8.90;;;;;;;21.49;62.99;100845.78;4991600;28;20026;-69
2021/07/25 23:27:42;;;;;;;18.33;9.68;;;;;;;21.52;63.26;100842.13;4991897;28;20030;-69
2021/07/25 23:30:08;;;;;;;25.95;9.00;;;;;;;21.43;62.58;100832.66;4989917;28;20488;-69
2021/07/25 23:32:33;;;;;;;19.13;9.90;;;;;;;21.40;63.07;100842.56;4979767;28;20500;-69
2021/07/25 23:34:59;;;;;;;12.48;8.52;;;;;;;21.33;63.30;100833.91;4982546;28;20031;-69
2021/07/25 23:37:24;;;;;;;13.27;8.18;;;;;;;21.32;64.23;100833.97;4985219;28;20484;-69
2021/07/25 23:39:50;;;;;;;15.15;9.52;;;;;;;21.39;63.93;100835.47;4988360;28;20057;-69
2021/07/25 23:42:15;;;;;;;15.30;8.57;;;;;;;21.41;63.73;100833.66;4984399;28;20045;-70
2021/07/25 23:44:42;;;;;;;12.20;8.75;;;;;;;21.24;63.90;100835.13;4991215;28;20026;-69
2021/07/25 23:47:08;;;;;;;11.90;8.98;;;;;;;21.20;64.55;100832.63;4988638;28;20126;-70
2021/07/25 23:49:33;;;;;;;12.02;9.38;;;;;;;21.14;64.73;100831.06;4989399;28;20110;-70
2021/07/25 23:52:01;;;;;;;13.25;8.98;;;;;;;21.18;64.50;100822.00;4992078;28;20022;-70
2021/07/25 23:54:27;;;;;;;12.52;8.63;;;;;;;21.13;64.81;100818.63;4990875;28;20381;-70
2021/07/25 23:56:52;;;;;;;12.50;9.43;;;;;;;21.05;65.19;100820.72;4984493;28;20029;-70
2021/07/25 23:59:18;;;;;;;14.73;9.10;;;;;;;21.08;64.82;100815.28;4989109;28;20035;-70
